Airport View

Enter AWOS ICAO identifier for current METAR.

ex. KFNL

KMAN 300430Z AUTO 00000KT 4SM HZ 04/00 A3014 RMK A01

30 Oct 2020 04:31

Frequency: 118.325

Phone: (208) 318-0040

Other Area AWOS: KEUL - KBOI - KONO - KMUO

TAF KBOI 292321Z 3000/3024 32006KT P6SM SKC FM300200 13006KT P6SM SKC FM301900 32010KT P6SM SKC